sensor_id;sensor_type;location;lat;lon;timestamp;P1;durP1;ratioP1;P2;durP2;ratioP2
70838;SDS011;58464;52.298;4.852;2023-08-21T00:01:02;10.50;;;2.25;;
70838;SDS011;58464;52.298;4.852;2023-08-21T00:03:27;10.47;;;2.33;;
70838;SDS011;58464;52.298;4.852;2023-08-21T00:05:53;8.82;;;1.88;;
70838;SDS011;58464;52.298;4.852;2023-08-21T00:08:18;5.50;;;1.43;;
70838;SDS011;58464;52.298;4.852;2023-08-21T00:10:43;8.93;;;2.10;;
70838;SDS011;58464;52.298;4.852;2023-08-21T00:13:09;7.03;;;1.73;;
70838;SDS011;58464;52.298;4.852;2023-08-21T00:15:34;5.05;;;2.03;;
70838;SDS011;58464;52.298;4.852;2023-08-21T00:18:00;11.43;;;2.25;;
70838;SDS011;58464;52.298;4.852;2023-08-21T00:20:34;5.53;;;1.70;;
70838;SDS011;58464;52.298;4.852;2023-08-21T00:23:00;8.38;;;1.95;;
70838;SDS011;58464;52.298;4.852;2023-08-21T00:25:25;9.00;;;1.87;;
70838;SDS011;58464;52.298;4.852;2023-08-21T00:27:50;4.37;;;1.73;;
70838;SDS011;58464;52.298;4.852;2023-08-21T00:30:15;5.50;;;1.63;;
70838;SDS011;58464;52.298;4.852;2023-08-21T00:32:41;4.35;;;1.33;;
70838;SDS011;58464;52.298;4.852;2023-08-21T00:35:06;7.65;;;1.75;;
70838;SDS011;58464;52.298;4.852;2023-08-21T00:37:31;5.78;;;1.92;;
70838;SDS011;58464;52.298;4.852;2023-08-21T00:39:57;9.93;;;1.67;;
70838;SDS011;58464;52.298;4.852;2023-08-21T00:42:22;8.30;;;2.10;;
70838;SDS011;58464;52.298;4.852;2023-08-21T00:44:47;11.67;;;1.93;;
70838;SDS011;58464;52.298;4.852;2023-08-21T00:47:15;7.90;;;1.80;;
70838;SDS011;58464;52.298;4.852;2023-08-21T00:49:41;7.38;;;2.00;;
70838;SDS011;58464;52.298;4.852;2023-08-21T00:52:07;6.97;;;1.90;;
70838;SDS011;58464;52.298;4.852;2023-08-21T00:54:33;10.07;;;2.22;;
70838;SDS011;58464;52.298;4.852;2023-08-21T00:56:59;12.18;;;2.00;;
70838;SDS011;58464;52.298;4.852;2023-08-21T00:59:24;5.93;;;2.00;;
70838;SDS011;58464;52.298;4.852;2023-08-21T01:01:49;4.00;;;1.30;;
70838;SDS011;58464;52.298;4.852;2023-08-21T01:04:15;11.93;;;1.85;;
70838;SDS011;58464;52.298;4.852;2023-08-21T01:06:40;5.30;;;1.52;;
70838;SDS011;58464;52.298;4.852;2023-08-21T01:09:11;4.93;;;1.90;;
70838;SDS011;58464;52.298;4.852;2023-08-21T01:16:47;7.47;;;2.00;;
70838;SDS011;58464;52.298;4.852;2023-08-21T01:22:09;5.40;;;1.65;;
70838;SDS011;58464;52.298;4.852;2023-08-21T01:24:35;10.38;;;2.75;;
70838;SDS011;58464;52.298;4.852;2023-08-21T01:27:00;9.27;;;2.05;;
70838;SDS011;58464;52.298;4.852;2023-08-21T01:29:25;4.88;;;1.73;;
70838;SDS011;58464;52.298;4.852;2023-08-21T01:31:52;7.13;;;2.00;;
70838;SDS011;58464;52.298;4.852;2023-08-21T01:34:19;4.65;;;1.80;;
70838;SDS011;58464;52.298;4.852;2023-08-21T01:36:44;8.02;;;1.75;;
70838;SDS011;58464;52.298;4.852;2023-08-21T01:39:10;5.57;;;1.38;;
70838;SDS011;58464;52.298;4.852;2023-08-21T01:41:36;7.05;;;1.83;;
70838;SDS011;58464;52.298;4.852;2023-08-21T01:44:01;7.55;;;1.92;;
70838;SDS011;58464;52.298;4.852;2023-08-21T01:46:27;5.18;;;1.48;;
70838;SDS011;58464;52.298;4.852;2023-08-21T01:48:52;10.82;;;1.63;;
70838;SDS011;58464;52.298;4.852;2023-08-21T01:51:17;5.57;;;1.50;;
70838;SDS011;58464;52.298;4.852;2023-08-21T01:53:42;5.00;;;1.50;;
70838;SDS011;58464;52.298;4.852;2023-08-21T01:56:09;11.40;;;1.80;;
70838;SDS011;58464;52.298;4.852;2023-08-21T01:58:34;6.23;;;1.77;;
70838;SDS011;58464;52.298;4.852;2023-08-21T02:00:59;9.50;;;2.17;;
70838;SDS011;58464;52.298;4.852;2023-08-21T02:03:25;8.15;;;1.67;;
70838;SDS011;58464;52.298;4.852;2023-08-21T02:05:50;7.15;;;1.90;;
70838;SDS011;58464;52.298;4.852;2023-08-21T02:08:17;7.83;;;1.80;;
70838;SDS011;58464;52.298;4.852;2023-08-21T02:10:49;7.65;;;1.77;;
70838;SDS011;58464;52.298;4.852;2023-08-21T02:13:14;9.73;;;1.70;;
70838;SDS011;58464;52.298;4.852;2023-08-21T02:15:40;11.13;;;1.90;;
70838;SDS011;58464;52.298;4.852;2023-08-21T02:18:06;6.88;;;1.45;;
70838;SDS011;58464;52.298;4.852;2023-08-21T02:20:31;10.10;;;1.80;;
70838;SDS011;58464;52.298;4.852;2023-08-21T02:22:56;5.80;;;1.97;;
70838;SDS011;58464;52.298;4.852;2023-08-21T02:25:22;5.57;;;1.42;;
70838;SDS011;58464;52.298;4.852;2023-08-21T02:27:47;3.83;;;1.27;;
70838;SDS011;58464;52.298;4.852;2023-08-21T02:30:12;7.90;;;1.77;;
70838;SDS011;58464;52.298;4.852;2023-08-21T02:32:38;8.73;;;2.20;;
70838;SDS011;58464;52.298;4.852;2023-08-21T02:35:05;9.27;;;1.85;;
70838;SDS011;58464;52.298;4.852;2023-08-21T02:37:31;5.03;;;1.52;;
70838;SDS011;58464;52.298;4.852;2023-08-21T02:39:56;9.38;;;1.63;;
70838;SDS011;58464;52.298;4.852;2023-08-21T02:42:21;7.83;;;1.73;;
70838;SDS011;58464;52.298;4.852;2023-08-21T02:44:47;6.10;;;1.42;;
70838;SDS011;58464;52.298;4.852;2023-08-21T02:47:12;9.67;;;2.10;;
70838;SDS011;58464;52.298;4.852;2023-08-21T02:49:37;10.27;;;1.88;;
70838;SDS011;58464;52.298;4.852;2023-08-21T02:52:03;5.63;;;1.50;;
70838;SDS011;58464;52.298;4.852;2023-08-21T02:54:28;8.13;;;1.42;;
70838;SDS011;58464;52.298;4.852;2023-08-21T02:56:55;11.02;;;1.88;;
70838;SDS011;58464;52.298;4.852;2023-08-21T02:59:20;6.30;;;1.70;;
70838;SDS011;58464;52.298;4.852;2023-08-21T03:01:45;6.70;;;1.30;;
70838;SDS011;58464;52.298;4.852;2023-08-21T03:04:11;8.00;;;2.03;;
70838;SDS011;58464;52.298;4.852;2023-08-21T03:06:36;7.10;;;1.35;;
70838;SDS011;58464;52.298;4.852;2023-08-21T03:09:01;8.37;;;1.63;;
70838;SDS011;58464;52.298;4.852;2023-08-21T03:11:27;9.23;;;2.00;;
70838;SDS011;58464;52.298;4.852;2023-08-21T03:13:52;8.05;;;1.92;;
70838;SDS011;58464;52.298;4.852;2023-08-21T03:16:17;6.13;;;1.25;;
70838;SDS011;58464;52.298;4.852;2023-08-21T03:18:56;5.30;;;1.27;;
70838;SDS011;58464;52.298;4.852;2023-08-21T03:21:22;4.70;;;1.52;;
70838;SDS011;58464;52.298;4.852;2023-08-21T03:23:49;7.97;;;1.80;;
70838;SDS011;58464;52.298;4.852;2023-08-21T03:26:14;8.68;;;1.58;;
70838;SDS011;58464;52.298;4.852;2023-08-21T03:28:39;7.80;;;1.83;;
70838;SDS011;58464;52.298;4.852;2023-08-21T03:31:05;4.97;;;1.40;;
70838;SDS011;58464;52.298;4.852;2023-08-21T03:33:30;7.67;;;1.87;;
70838;SDS011;58464;52.298;4.852;2023-08-21T03:35:55;7.23;;;1.53;;
70838;SDS011;58464;52.298;4.852;2023-08-21T03:38:20;8.00;;;1.60;;
70838;SDS011;58464;52.298;4.852;2023-08-21T03:40:46;8.03;;;1.90;;
70838;SDS011;58464;52.298;4.852;2023-08-21T03:43:11;11.75;;;1.70;;
70838;SDS011;58464;52.298;4.852;2023-08-21T03:45:36;7.97;;;1.50;;
70838;SDS011;58464;52.298;4.852;2023-08-21T03:48:02;11.83;;;2.60;;
70838;SDS011;58464;52.298;4.852;2023-08-21T03:50:27;9.93;;;1.50;;
70838;SDS011;58464;52.298;4.852;2023-08-21T03:52:52;7.40;;;2.00;;
70838;SDS011;58464;52.298;4.852;2023-08-21T03:55:17;6.37;;;1.87;;
70838;SDS011;58464;52.298;4.852;2023-08-21T03:57:43;7.00;;;1.80;;
70838;SDS011;58464;52.298;4.852;2023-08-21T04:00:08;5.53;;;1.70;;
70838;SDS011;58464;52.298;4.852;2023-08-21T04:02:34;8.07;;;1.95;;
70838;SDS011;58464;52.298;4.852;2023-08-21T04:04:59;8.65;;;2.03;;
70838;SDS011;58464;52.298;4.852;2023-08-21T04:07:24;9.87;;;2.07;;
70838;SDS011;58464;52.298;4.852;2023-08-21T04:09:50;4.73;;;1.40;;
70838;SDS011;58464;52.298;4.852;2023-08-21T04:12:15;4.50;;;1.47;;
70838;SDS011;58464;52.298;4.852;2023-08-21T04:14:40;9.68;;;1.60;;
70838;SDS011;58464;52.298;4.852;2023-08-21T04:17:05;7.75;;;1.50;;
70838;SDS011;58464;52.298;4.852;2023-08-21T04:19:31;7.77;;;2.10;;
70838;SDS011;58464;52.298;4.852;2023-08-21T04:21:59;8.00;;;1.67;;
70838;SDS011;58464;52.298;4.852;2023-08-21T04:24:24;4.60;;;1.53;;
70838;SDS011;58464;52.298;4.852;2023-08-21T04:26:49;9.93;;;1.40;;
70838;SDS011;58464;52.298;4.852;2023-08-21T04:29:14;9.13;;;1.90;;
70838;SDS011;58464;52.298;4.852;2023-08-21T04:31:40;9.67;;;2.07;;
70838;SDS011;58464;52.298;4.852;2023-08-21T04:34:05;6.30;;;1.45;;
70838;SDS011;58464;52.298;4.852;2023-08-21T04:36:31;6.63;;;1.77;;
70838;SDS011;58464;52.298;4.852;2023-08-21T04:38:56;7.45;;;1.65;;
70838;SDS011;58464;52.298;4.852;2023-08-21T04:41:23;6.63;;;2.28;;
70838;SDS011;58464;52.298;4.852;2023-08-21T04:43:48;6.47;;;1.75;;
70838;SDS011;58464;52.298;4.852;2023-08-21T04:46:14;9.23;;;1.83;;
70838;SDS011;58464;52.298;4.852;2023-08-21T04:48:39;7.60;;;1.80;;
70838;SDS011;58464;52.298;4.852;2023-08-21T04:51:04;7.00;;;2.03;;
70838;SDS011;58464;52.298;4.852;2023-08-21T04:53:31;9.30;;;1.98;;
70838;SDS011;58464;52.298;4.852;2023-08-21T04:55:58;10.93;;;2.03;;
70838;SDS011;58464;52.298;4.852;2023-08-21T04:58:23;9.25;;;1.88;;
70838;SDS011;58464;52.298;4.852;2023-08-21T05:00:49;6.90;;;1.65;;
70838;SDS011;58464;52.298;4.852;2023-08-21T05:03:14;8.77;;;1.73;;
70838;SDS011;58464;52.298;4.852;2023-08-21T05:05:39;7.00;;;1.90;;
70838;SDS011;58464;52.298;4.852;2023-08-21T05:08:05;10.67;;;1.90;;
70838;SDS011;58464;52.298;4.852;2023-08-21T05:10:30;6.63;;;1.80;;
70838;SDS011;58464;52.298;4.852;2023-08-21T05:12:56;8.40;;;2.07;;
70838;SDS011;58464;52.298;4.852;2023-08-21T05:15:22;11.57;;;1.75;;
70838;SDS011;58464;52.298;4.852;2023-08-21T05:17:47;6.40;;;1.77;;
70838;SDS011;58464;52.298;4.852;2023-08-21T05:20:12;10.30;;;1.63;;
70838;SDS011;58464;52.298;4.852;2023-08-21T05:22:39;12.98;;;2.55;;
70838;SDS011;58464;52.298;4.852;2023-08-21T05:25:05;6.78;;;1.70;;
70838;SDS011;58464;52.298;4.852;2023-08-21T05:27:30;12.50;;;1.90;;
70838;SDS011;58464;52.298;4.852;2023-08-21T05:29:55;6.30;;;1.65;;
70838;SDS011;58464;52.298;4.852;2023-08-21T05:32:21;14.30;;;2.17;;
70838;SDS011;58464;52.298;4.852;2023-08-21T05:34:46;8.35;;;2.25;;
70838;SDS011;58464;52.298;4.852;2023-08-21T05:37:11;7.72;;;1.83;;
70838;SDS011;58464;52.298;4.852;2023-08-21T05:39:37;9.52;;;2.15;;
70838;SDS011;58464;52.298;4.852;2023-08-21T05:42:02;14.65;;;3.08;;
70838;SDS011;58464;52.298;4.852;2023-08-21T05:44:28;8.30;;;2.00;;
70838;SDS011;58464;52.298;4.852;2023-08-21T05:46:53;7.30;;;1.97;;
70838;SDS011;58464;52.298;4.852;2023-08-21T05:49:19;8.88;;;2.10;;
70838;SDS011;58464;52.298;4.852;2023-08-21T05:51:44;10.30;;;2.20;;
70838;SDS011;58464;52.298;4.852;2023-08-21T05:54:09;9.93;;;2.10;;
70838;SDS011;58464;52.298;4.852;2023-08-21T05:56:35;11.73;;;2.40;;
70838;SDS011;58464;52.298;4.852;2023-08-21T05:59:00;12.33;;;1.83;;
70838;SDS011;58464;52.298;4.852;2023-08-21T06:01:25;8.23;;;1.77;;
70838;SDS011;58464;52.298;4.852;2023-08-21T06:03:50;6.60;;;2.00;;
70838;SDS011;58464;52.298;4.852;2023-08-21T06:06:16;11.43;;;2.53;;
70838;SDS011;58464;52.298;4.852;2023-08-21T06:08:41;9.80;;;1.90;;
70838;SDS011;58464;52.298;4.852;2023-08-21T06:11:06;11.07;;;1.97;;
70838;SDS011;58464;52.298;4.852;2023-08-21T06:13:31;13.00;;;2.83;;
70838;SDS011;58464;52.298;4.852;2023-08-21T06:15:57;12.60;;;2.45;;
70838;SDS011;58464;52.298;4.852;2023-08-21T06:18:22;11.30;;;2.17;;
70838;SDS011;58464;52.298;4.852;2023-08-21T06:20:48;12.45;;;2.42;;
70838;SDS011;58464;52.298;4.852;2023-08-21T06:23:13;11.13;;;2.35;;
70838;SDS011;58464;52.298;4.852;2023-08-21T06:25:39;12.53;;;2.60;;
70838;SDS011;58464;52.298;4.852;2023-08-21T06:28:04;10.38;;;2.67;;
70838;SDS011;58464;52.298;4.852;2023-08-21T06:30:29;9.38;;;2.42;;
70838;SDS011;58464;52.298;4.852;2023-08-21T06:32:55;8.85;;;2.13;;
70838;SDS011;58464;52.298;4.852;2023-08-21T06:35:21;16.15;;;2.38;;
70838;SDS011;58464;52.298;4.852;2023-08-21T06:37:46;8.48;;;2.20;;
70838;SDS011;58464;52.298;4.852;2023-08-21T06:40:13;11.70;;;2.30;;
70838;SDS011;58464;52.298;4.852;2023-08-21T06:42:38;12.57;;;2.28;;
70838;SDS011;58464;52.298;4.852;2023-08-21T06:45:06;21.57;;;3.03;;
70838;SDS011;58464;52.298;4.852;2023-08-21T06:47:32;14.75;;;2.60;;
70838;SDS011;58464;52.298;4.852;2023-08-21T06:49:58;11.40;;;2.30;;
70838;SDS011;58464;52.298;4.852;2023-08-21T06:52:26;14.63;;;2.28;;
70838;SDS011;58464;52.298;4.852;2023-08-21T06:54:51;10.52;;;1.83;;
70838;SDS011;58464;52.298;4.852;2023-08-21T06:57:17;9.33;;;2.10;;
70838;SDS011;58464;52.298;4.852;2023-08-21T06:59:42;12.77;;;2.43;;
70838;SDS011;58464;52.298;4.852;2023-08-21T07:02:07;14.23;;;2.27;;
70838;SDS011;58464;52.298;4.852;2023-08-21T07:04:32;11.13;;;2.60;;
70838;SDS011;58464;52.298;4.852;2023-08-21T07:06:58;11.40;;;3.00;;
70838;SDS011;58464;52.298;4.852;2023-08-21T07:09:24;9.25;;;2.22;;
70838;SDS011;58464;52.298;4.852;2023-08-21T07:11:50;14.43;;;2.63;;
70838;SDS011;58464;52.298;4.852;2023-08-21T07:14:16;14.10;;;2.93;;
70838;SDS011;58464;52.298;4.852;2023-08-21T07:16:42;7.18;;;2.10;;
70838;SDS011;58464;52.298;4.852;2023-08-21T07:19:07;14.15;;;2.88;;
70838;SDS011;58464;52.298;4.852;2023-08-21T07:21:32;11.73;;;2.70;;
70838;SDS011;58464;52.298;4.852;2023-08-21T07:24:00;7.80;;;2.33;;
70838;SDS011;58464;52.298;4.852;2023-08-21T07:26:25;12.27;;;2.42;;
70838;SDS011;58464;52.298;4.852;2023-08-21T07:28:50;11.73;;;2.43;;
70838;SDS011;58464;52.298;4.852;2023-08-21T07:31:18;12.07;;;2.22;;
70838;SDS011;58464;52.298;4.852;2023-08-21T07:33:43;15.55;;;3.42;;
70838;SDS011;58464;52.298;4.852;2023-08-21T07:36:08;13.30;;;2.23;;
70838;SDS011;58464;52.298;4.852;2023-08-21T07:38:35;11.70;;;2.33;;
70838;SDS011;58464;52.298;4.852;2023-08-21T07:41:03;13.60;;;3.25;;
70838;SDS011;58464;52.298;4.852;2023-08-21T07:43:29;8.70;;;2.40;;
70838;SDS011;58464;52.298;4.852;2023-08-21T07:45:55;18.65;;;3.20;;
70838;SDS011;58464;52.298;4.852;2023-08-21T07:48:20;12.37;;;3.27;;
70838;SDS011;58464;52.298;4.852;2023-08-21T07:50:52;8.57;;;2.53;;
70838;SDS011;58464;52.298;4.852;2023-08-21T07:53:18;11.40;;;3.08;;
70838;SDS011;58464;52.298;4.852;2023-08-21T07:55:43;12.60;;;3.63;;
70838;SDS011;58464;52.298;4.852;2023-08-21T07:58:10;10.93;;;2.70;;
70838;SDS011;58464;52.298;4.852;2023-08-21T08:00:35;14.55;;;3.25;;
70838;SDS011;58464;52.298;4.852;2023-08-21T08:03:01;11.13;;;3.10;;
70838;SDS011;58464;52.298;4.852;2023-08-21T08:05:26;11.50;;;3.08;;
70838;SDS011;58464;52.298;4.852;2023-08-21T08:07:51;9.50;;;3.10;;
70838;SDS011;58464;52.298;4.852;2023-08-21T08:10:16;16.63;;;3.90;;
70838;SDS011;58464;52.298;4.852;2023-08-21T08:12:42;13.30;;;3.33;;
70838;SDS011;58464;52.298;4.852;2023-08-21T08:15:09;13.57;;;3.03;;
70838;SDS011;58464;52.298;4.852;2023-08-21T08:17:35;8.43;;;2.60;;
70838;SDS011;58464;52.298;4.852;2023-08-21T08:20:01;11.02;;;3.17;;
70838;SDS011;58464;52.298;4.852;2023-08-21T08:22:26;12.75;;;2.83;;
70838;SDS011;58464;52.298;4.852;2023-08-21T08:24:52;9.53;;;2.40;;
70838;SDS011;58464;52.298;4.852;2023-08-21T08:27:17;14.30;;;2.70;;
70838;SDS011;58464;52.298;4.852;2023-08-21T08:29:42;13.77;;;3.00;;
70838;SDS011;58464;52.298;4.852;2023-08-21T08:32:07;11.33;;;2.70;;
70838;SDS011;58464;52.298;4.852;2023-08-21T08:34:33;10.17;;;2.83;;
70838;SDS011;58464;52.298;4.852;2023-08-21T08:36:58;14.73;;;3.17;;
70838;SDS011;58464;52.298;4.852;2023-08-21T08:39:23;14.63;;;2.63;;
70838;SDS011;58464;52.298;4.852;2023-08-21T08:41:56;9.07;;;2.07;;
70838;SDS011;58464;52.298;4.852;2023-08-21T08:44:24;16.65;;;3.22;;
70838;SDS011;58464;52.298;4.852;2023-08-21T08:46:50;10.80;;;2.58;;
70838;SDS011;58464;52.298;4.852;2023-08-21T08:49:17;6.88;;;2.30;;
70838;SDS011;58464;52.298;4.852;2023-08-21T08:51:42;15.82;;;3.42;;
70838;SDS011;58464;52.298;4.852;2023-08-21T08:54:08;14.88;;;3.47;;
70838;SDS011;58464;52.298;4.852;2023-08-21T08:56:34;7.43;;;2.40;;
70838;SDS011;58464;52.298;4.852;2023-08-21T08:58:59;13.45;;;3.03;;
70838;SDS011;58464;52.298;4.852;2023-08-21T09:01:24;13.60;;;3.00;;
70838;SDS011;58464;52.298;4.852;2023-08-21T09:03:50;17.07;;;2.63;;
70838;SDS011;58464;52.298;4.852;2023-08-21T09:06:15;11.98;;;2.50;;
70838;SDS011;58464;52.298;4.852;2023-08-21T09:08:45;12.03;;;2.33;;
70838;SDS011;58464;52.298;4.852;2023-08-21T09:11:17;12.18;;;2.40;;
70838;SDS011;58464;52.298;4.852;2023-08-21T09:13:47;11.03;;;2.50;;
70838;SDS011;58464;52.298;4.852;2023-08-21T09:16:14;8.75;;;2.17;;
70838;SDS011;58464;52.298;4.852;2023-08-21T09:18:46;8.68;;;2.38;;
70838;SDS011;58464;52.298;4.852;2023-08-21T09:21:11;11.27;;;2.28;;
70838;SDS011;58464;52.298;4.852;2023-08-21T09:23:37;13.50;;;2.55;;
70838;SDS011;58464;52.298;4.852;2023-08-21T09:26:02;13.13;;;2.80;;
70838;SDS011;58464;52.298;4.852;2023-08-21T09:28:27;7.55;;;1.90;;
70838;SDS011;58464;52.298;4.852;2023-08-21T09:30:53;11.57;;;2.45;;
70838;SDS011;58464;52.298;4.852;2023-08-21T09:33:20;12.52;;;3.00;;
70838;SDS011;58464;52.298;4.852;2023-08-21T09:35:48;10.52;;;2.67;;
70838;SDS011;58464;52.298;4.852;2023-08-21T09:38:14;6.93;;;2.13;;
70838;SDS011;58464;52.298;4.852;2023-08-21T09:40:42;10.13;;;1.90;;
70838;SDS011;58464;52.298;4.852;2023-08-21T09:43:08;8.60;;;2.17;;
70838;SDS011;58464;52.298;4.852;2023-08-21T09:45:33;8.60;;;2.00;;
70838;SDS011;58464;52.298;4.852;2023-08-21T09:47:59;10.77;;;2.53;;
70838;SDS011;58464;52.298;4.852;2023-08-21T09:50:25;12.95;;;2.05;;
70838;SDS011;58464;52.298;4.852;2023-08-21T09:52:51;9.88;;;2.03;;
70838;SDS011;58464;52.298;4.852;2023-08-21T09:55:16;8.00;;;2.20;;
70838;SDS011;58464;52.298;4.852;2023-08-21T09:57:42;15.18;;;2.75;;
70838;SDS011;58464;52.298;4.852;2023-08-21T10:00:08;8.98;;;2.17;;
70838;SDS011;58464;52.298;4.852;2023-08-21T10:02:42;11.93;;;2.38;;
70838;SDS011;58464;52.298;4.852;2023-08-21T10:05:13;12.57;;;2.28;;
70838;SDS011;58464;52.298;4.852;2023-08-21T10:07:39;9.48;;;2.30;;
70838;SDS011;58464;52.298;4.852;2023-08-21T10:10:06;10.63;;;1.92;;
70838;SDS011;58464;52.298;4.852;2023-08-21T10:12:31;9.65;;;2.47;;
70838;SDS011;58464;52.298;4.852;2023-08-21T10:14:57;12.80;;;1.87;;
70838;SDS011;58464;52.298;4.852;2023-08-21T10:17:22;6.88;;;1.83;;
70838;SDS011;58464;52.298;4.852;2023-08-21T10:19:51;9.13;;;1.90;;
70838;SDS011;58464;52.298;4.852;2023-08-21T10:22:36;7.07;;;1.75;;
70838;SDS011;58464;52.298;4.852;2023-08-21T10:25:02;6.18;;;1.35;;
70838;SDS011;58464;52.298;4.852;2023-08-21T10:27:31;7.28;;;1.70;;
70838;SDS011;58464;52.298;4.852;2023-08-21T10:29:59;7.60;;;1.85;;
70838;SDS011;58464;52.298;4.852;2023-08-21T10:32:24;11.50;;;1.58;;
70838;SDS011;58464;52.298;4.852;2023-08-21T10:34:53;10.00;;;2.15;;
70838;SDS011;58464;52.298;4.852;2023-08-21T10:37:19;4.90;;;1.60;;
70838;SDS011;58464;52.298;4.852;2023-08-21T10:39:55;9.27;;;1.93;;
70838;SDS011;58464;52.298;4.852;2023-08-21T10:42:21;13.05;;;2.30;;
70838;SDS011;58464;52.298;4.852;2023-08-21T10:45:02;10.05;;;2.03;;
70838;SDS011;58464;52.298;4.852;2023-08-21T10:47:34;12.90;;;1.90;;
70838;SDS011;58464;52.298;4.852;2023-08-21T10:50:05;4.20;;;1.48;;
70838;SDS011;58464;52.298;4.852;2023-08-21T10:52:31;8.75;;;1.67;;
70838;SDS011;58464;52.298;4.852;2023-08-21T10:54:58;6.30;;;1.40;;
70838;SDS011;58464;52.298;4.852;2023-08-21T10:57:24;5.97;;;1.40;;
70838;SDS011;58464;52.298;4.852;2023-08-21T10:59:50;6.20;;;1.10;;
70838;SDS011;58464;52.298;4.852;2023-08-21T11:02:18;3.47;;;1.10;;
70838;SDS011;58464;52.298;4.852;2023-08-21T11:04:44;3.00;;;0.80;;
70838;SDS011;58464;52.298;4.852;2023-08-21T11:07:09;3.42;;;0.85;;
70838;SDS011;58464;52.298;4.852;2023-08-21T11:09:35;2.25;;;0.65;;
70838;SDS011;58464;52.298;4.852;2023-08-21T11:12:08;2.45;;;1.00;;
70838;SDS011;58464;52.298;4.852;2023-08-21T11:14:33;4.72;;;1.15;;
70838;SDS011;58464;52.298;4.852;2023-08-21T11:17:00;3.33;;;0.93;;
70838;SDS011;58464;52.298;4.852;2023-08-21T11:19:25;7.93;;;2.05;;
70838;SDS011;58464;52.298;4.852;2023-08-21T11:21:51;3.83;;;1.13;;
70838;SDS011;58464;52.298;4.852;2023-08-21T11:24:16;2.72;;;1.02;;
70838;SDS011;58464;52.298;4.852;2023-08-21T11:26:41;6.78;;;1.35;;
70838;SDS011;58464;52.298;4.852;2023-08-21T11:29:07;4.97;;;1.00;;
70838;SDS011;58464;52.298;4.852;2023-08-21T11:31:32;3.30;;;0.80;;
70838;SDS011;58464;52.298;4.852;2023-08-21T11:33:59;4.07;;;1.03;;
70838;SDS011;58464;52.298;4.852;2023-08-21T11:36:24;7.03;;;1.73;;
70838;SDS011;58464;52.298;4.852;2023-08-21T11:38:59;7.25;;;1.33;;
70838;SDS011;58464;52.298;4.852;2023-08-21T11:41:25;4.15;;;1.13;;
70838;SDS011;58464;52.298;4.852;2023-08-21T11:43:50;5.87;;;1.40;;
70838;SDS011;58464;52.298;4.852;2023-08-21T11:46:15;7.13;;;1.20;;
70838;SDS011;58464;52.298;4.852;2023-08-21T11:48:42;5.20;;;1.20;;
70838;SDS011;58464;52.298;4.852;2023-08-21T11:51:09;6.32;;;1.40;;
70838;SDS011;58464;52.298;4.852;2023-08-21T11:53:41;3.40;;;0.80;;
70838;SDS011;58464;52.298;4.852;2023-08-21T11:56:14;4.20;;;1.13;;
70838;SDS011;58464;52.298;4.852;2023-08-21T12:01:06;2.97;;;1.08;;
70838;SDS011;58464;52.298;4.852;2023-08-21T12:03:36;2.35;;;0.90;;
70838;SDS011;58464;52.298;4.852;2023-08-21T12:06:06;4.22;;;0.93;;
70838;SDS011;58464;52.298;4.852;2023-08-21T12:08:31;6.53;;;1.00;;
70838;SDS011;58464;52.298;4.852;2023-08-21T12:10:57;4.70;;;0.90;;
70838;SDS011;58464;52.298;4.852;2023-08-21T12:13:22;8.95;;;1.42;;
70838;SDS011;58464;52.298;4.852;2023-08-21T12:15:47;3.87;;;0.83;;
70838;SDS011;58464;52.298;4.852;2023-08-21T12:18:13;5.00;;;1.30;;
70838;SDS011;58464;52.298;4.852;2023-08-21T12:20:38;2.77;;;0.90;;
70838;SDS011;58464;52.298;4.852;2023-08-21T12:23:03;2.13;;;0.60;;
70838;SDS011;58464;52.298;4.852;2023-08-21T12:25:28;3.50;;;1.17;;
70838;SDS011;58464;52.298;4.852;2023-08-21T12:27:55;4.50;;;0.73;;
70838;SDS011;58464;52.298;4.852;2023-08-21T12:30:20;7.28;;;1.38;;
70838;SDS011;58464;52.298;4.852;2023-08-21T12:32:46;3.55;;;0.80;;
70838;SDS011;58464;52.298;4.852;2023-08-21T12:35:11;5.63;;;1.30;;
70838;SDS011;58464;52.298;4.852;2023-08-21T12:37:37;3.90;;;1.15;;
70838;SDS011;58464;52.298;4.852;2023-08-21T12:40:02;3.40;;;0.93;;
70838;SDS011;58464;52.298;4.852;2023-08-21T12:42:27;4.10;;;0.95;;
70838;SDS011;58464;52.298;4.852;2023-08-21T12:44:54;4.07;;;1.03;;
70838;SDS011;58464;52.298;4.852;2023-08-21T12:47:19;1.80;;;0.63;;
70838;SDS011;58464;52.298;4.852;2023-08-21T12:49:45;4.80;;;1.40;;
70838;SDS011;58464;52.298;4.852;2023-08-21T12:52:10;3.92;;;1.02;;
70838;SDS011;58464;52.298;4.852;2023-08-21T12:54:38;4.57;;;1.10;;
70838;SDS011;58464;52.298;4.852;2023-08-21T12:57:03;3.85;;;0.98;;
70838;SDS011;58464;52.298;4.852;2023-08-21T12:59:28;2.00;;;0.80;;
70838;SDS011;58464;52.298;4.852;2023-08-21T13:01:53;9.13;;;1.43;;
70838;SDS011;58464;52.298;4.852;2023-08-21T13:04:19;6.45;;;1.35;;
70838;SDS011;58464;52.298;4.852;2023-08-21T13:06:44;2.40;;;0.63;;
70838;SDS011;58464;52.298;4.852;2023-08-21T13:09:09;3.97;;;1.43;;
70838;SDS011;58464;52.298;4.852;2023-08-21T13:11:35;2.77;;;0.60;;
70838;SDS011;58464;52.298;4.852;2023-08-21T13:14:00;3.50;;;0.97;;
70838;SDS011;58464;52.298;4.852;2023-08-21T13:16:25;2.47;;;0.60;;
70838;SDS011;58464;52.298;4.852;2023-08-21T13:18:50;5.77;;;1.07;;
70838;SDS011;58464;52.298;4.852;2023-08-21T13:21:16;3.03;;;1.17;;
70838;SDS011;58464;52.298;4.852;2023-08-21T13:23:41;3.67;;;1.07;;
70838;SDS011;58464;52.298;4.852;2023-08-21T13:26:07;1.67;;;0.67;;
70838;SDS011;58464;52.298;4.852;2023-08-21T13:28:32;3.38;;;1.13;;
70838;SDS011;58464;52.298;4.852;2023-08-21T13:30:59;4.50;;;1.35;;
70838;SDS011;58464;52.298;4.852;2023-08-21T13:33:24;4.82;;;1.35;;
70838;SDS011;58464;52.298;4.852;2023-08-21T13:35:49;5.90;;;0.87;;
70838;SDS011;58464;52.298;4.852;2023-08-21T13:38:14;2.07;;;0.77;;
70838;SDS011;58464;52.298;4.852;2023-08-21T13:40:40;7.07;;;1.33;;
70838;SDS011;58464;52.298;4.852;2023-08-21T13:43:06;5.47;;;0.98;;
70838;SDS011;58464;52.298;4.852;2023-08-21T13:45:32;9.95;;;1.40;;
70838;SDS011;58464;52.298;4.852;2023-08-21T13:47:57;3.20;;;0.70;;
70838;SDS011;58464;52.298;4.852;2023-08-21T13:50:23;3.87;;;0.83;;
70838;SDS011;58464;52.298;4.852;2023-08-21T13:52:48;5.73;;;1.00;;
70838;SDS011;58464;52.298;4.852;2023-08-21T13:55:14;3.03;;;0.82;;
70838;SDS011;58464;52.298;4.852;2023-08-21T13:57:39;3.88;;;0.80;;
70838;SDS011;58464;52.298;4.852;2023-08-21T14:00:06;3.78;;;0.75;;
70838;SDS011;58464;52.298;4.852;2023-08-21T14:02:38;4.35;;;0.90;;
70838;SDS011;58464;52.298;4.852;2023-08-21T14:05:04;4.38;;;0.90;;
70838;SDS011;58464;52.298;4.852;2023-08-21T14:07:31;1.70;;;0.52;;
70838;SDS011;58464;52.298;4.852;2023-08-21T14:09:57;4.13;;;1.05;;
70838;SDS011;58464;52.298;4.852;2023-08-21T14:12:23;4.43;;;1.20;;
70838;SDS011;58464;52.298;4.852;2023-08-21T14:14:48;6.20;;;1.27;;
70838;SDS011;58464;52.298;4.852;2023-08-21T14:17:13;5.75;;;1.15;;
70838;SDS011;58464;52.298;4.852;2023-08-21T14:19:39;2.60;;;0.60;;
70838;SDS011;58464;52.298;4.852;2023-08-21T14:22:04;2.77;;;0.90;;
70838;SDS011;58464;52.298;4.852;2023-08-21T14:24:29;10.32;;;0.77;;
70838;SDS011;58464;52.298;4.852;2023-08-21T14:26:56;2.72;;;0.80;;
70838;SDS011;58464;52.298;4.852;2023-08-21T14:29:22;6.93;;;1.10;;
70838;SDS011;58464;52.298;4.852;2023-08-21T14:31:47;1.95;;;0.77;;
70838;SDS011;58464;52.298;4.852;2023-08-21T14:34:13;4.90;;;1.10;;
70838;SDS011;58464;52.298;4.852;2023-08-21T14:36:39;2.97;;;0.88;;
70838;SDS011;58464;52.298;4.852;2023-08-21T14:39:04;1.65;;;0.70;;
70838;SDS011;58464;52.298;4.852;2023-08-21T14:41:31;5.30;;;1.20;;
70838;SDS011;58464;52.298;4.852;2023-08-21T14:43:56;3.13;;;1.00;;
70838;SDS011;58464;52.298;4.852;2023-08-21T14:46:21;3.03;;;1.03;;